sensor_id;sensor_type;location;lat;lon;timestamp;temperature;humidity
21590;DHT22;10957;50.968;6.828;2023-02-08T00:00:02;-1.90;1.00
21590;DHT22;10957;50.968;6.828;2023-02-08T00:05:08;-2.20;1.00
21590;DHT22;10957;50.968;6.828;2023-02-08T00:10:09;-2.30;1.00
21590;DHT22;10957;50.968;6.828;2023-02-08T00:15:11;-2.00;1.00
21590;DHT22;10957;50.968;6.828;2023-02-08T00:20:12;-2.40;1.00
21590;DHT22;10957;50.968;6.828;2023-02-08T00:25:13;-2.10;1.00
21590;DHT22;10957;50.968;6.828;2023-02-08T00:30:15;-2.20;1.00
21590;DHT22;10957;50.968;6.828;2023-02-08T00:35:16;-2.30;8.30
21590;DHT22;10957;50.968;6.828;2023-02-08T00:40:17;-2.10;11.10
21590;DHT22;10957;50.968;6.828;2023-02-08T00:45:18;-2.40;13.00
21590;DHT22;10957;50.968;6.828;2023-02-08T00:50:20;-2.50;8.50
21590;DHT22;10957;50.968;6.828;2023-02-08T00:55:21;-2.50;7.20
21590;DHT22;10957;50.968;6.828;2023-02-08T01:00:22;-3.10;17.50
21590;DHT22;10957;50.968;6.828;2023-02-08T01:05:24;-2.50;12.70
21590;DHT22;10957;50.968;6.828;2023-02-08T01:10:25;-2.20;15.60
21590;DHT22;10957;50.968;6.828;2023-02-08T01:15:26;-2.50;12.00
21590;DHT22;10957;50.968;6.828;2023-02-08T01:20:28;-2.30;16.50
21590;DHT22;10957;50.968;6.828;2023-02-08T01:25:30;-2.50;23.90
21590;DHT22;10957;50.968;6.828;2023-02-08T01:30:32;-2.40;27.40
21590;DHT22;10957;50.968;6.828;2023-02-08T01:35:34;-2.70;27.60
21590;DHT22;10957;50.968;6.828;2023-02-08T01:40:35;-2.50;23.90
21590;DHT22;10957;50.968;6.828;2023-02-08T01:45:36;-2.80;26.00
21590;DHT22;10957;50.968;6.828;2023-02-08T01:50:54;-2.80;48.50
21590;DHT22;10957;50.968;6.828;2023-02-08T01:56:01;-2.90;65.40
21590;DHT22;10957;50.968;6.828;2023-02-08T02:01:04;-2.70;63.90
21590;DHT22;10957;50.968;6.828;2023-02-08T02:06:10;-2.90;64.30
21590;DHT22;10957;50.968;6.828;2023-02-08T02:11:13;-2.90;73.70
21590;DHT22;10957;50.968;6.828;2023-02-08T02:16:14;-2.90;60.00
21590;DHT22;10957;50.968;6.828;2023-02-08T02:21:37;-2.90;56.30
21590;DHT22;10957;50.968;6.828;2023-02-08T02:27:10;-2.90;92.10
21590;DHT22;10957;50.968;6.828;2023-02-08T02:43:24;-2.90;99.90
21590;DHT22;10957;50.968;6.828;2023-02-08T02:49:02;-3.10;89.00
21590;DHT22;10957;50.968;6.828;2023-02-08T02:54:08;-3.00;99.90
21590;DHT22;10957;50.968;6.828;2023-02-08T02:59:12;-3.20;99.90
21590;DHT22;10957;50.968;6.828;2023-02-08T03:21:06;-3.30;99.90
21590;DHT22;10957;50.968;6.828;2023-02-08T03:26:26;-3.30;99.90
21590;DHT22;10957;50.968;6.828;2023-02-08T03:31:40;-3.20;99.90
21590;DHT22;10957;50.968;6.828;2023-02-08T03:37:17;-3.30;99.90
21590;DHT22;10957;50.968;6.828;2023-02-08T03:42:22;-3.30;99.90
21590;DHT22;10957;50.968;6.828;2023-02-08T03:47:31;-3.40;99.90
21590;DHT22;10957;50.968;6.828;2023-02-08T03:52:34;-3.10;99.90
21590;DHT22;10957;50.968;6.828;2023-02-08T03:57:43;-3.20;99.90
21590;DHT22;10957;50.968;6.828;2023-02-08T04:03:00;-3.30;99.90
21590;DHT22;10957;50.968;6.828;2023-02-08T04:08:03;-3.20;99.90
21590;DHT22;10957;50.968;6.828;2023-02-08T04:13:04;-3.30;99.90
21590;DHT22;10957;50.968;6.828;2023-02-08T04:18:05;-3.20;99.90
21590;DHT22;10957;50.968;6.828;2023-02-08T04:23:07;-3.30;99.90
21590;DHT22;10957;50.968;6.828;2023-02-08T04:28:08;-3.20;99.90
21590;DHT22;10957;50.968;6.828;2023-02-08T04:33:09;-3.20;99.90
21590;DHT22;10957;50.968;6.828;2023-02-08T04:38:12;-3.30;99.90
21590;DHT22;10957;50.968;6.828;2023-02-08T04:43:14;-3.30;99.90
21590;DHT22;10957;50.968;6.828;2023-02-08T04:48:15;-3.10;99.90
21590;DHT22;10957;50.968;6.828;2023-02-08T04:53:16;-3.20;99.90
21590;DHT22;10957;50.968;6.828;2023-02-08T04:58:18;-3.20;99.90
21590;DHT22;10957;50.968;6.828;2023-02-08T05:03:19;-3.10;99.90
21590;DHT22;10957;50.968;6.828;2023-02-08T05:08:20;-3.20;99.90
21590;DHT22;10957;50.968;6.828;2023-02-08T05:13:21;-3.20;99.90
21590;DHT22;10957;50.968;6.828;2023-02-08T05:18:23;-3.20;99.90
21590;DHT22;10957;50.968;6.828;2023-02-08T05:23:25;-3.20;99.90
21590;DHT22;10957;50.968;6.828;2023-02-08T05:28:26;-3.30;99.90
21590;DHT22;10957;50.968;6.828;2023-02-08T05:33:28;-3.40;99.90
21590;DHT22;10957;50.968;6.828;2023-02-08T05:38:29;-3.30;99.90
21590;DHT22;10957;50.968;6.828;2023-02-08T05:43:30;-3.30;99.90
21590;DHT22;10957;50.968;6.828;2023-02-08T05:48:31;-3.30;99.90
21590;DHT22;10957;50.968;6.828;2023-02-08T05:53:33;-3.10;99.90
21590;DHT22;10957;50.968;6.828;2023-02-08T05:58:34;-3.50;99.90
21590;DHT22;10957;50.968;6.828;2023-02-08T06:03:36;-2.80;99.90
21590;DHT22;10957;50.968;6.828;2023-02-08T06:08:37;-2.70;94.60
21590;DHT22;10957;50.968;6.828;2023-02-08T06:13:39;-2.80;57.10
21590;DHT22;10957;50.968;6.828;2023-02-08T06:18:40;-2.90;60.20
21590;DHT22;10957;50.968;6.828;2023-02-08T06:23:41;-3.00;27.40
21590;DHT22;10957;50.968;6.828;2023-02-08T06:28:42;-2.80;37.80
21590;DHT22;10957;50.968;6.828;2023-02-08T06:33:43;-2.90;36.80
21590;DHT22;10957;50.968;6.828;2023-02-08T06:38:45;-3.00;19.40
21590;DHT22;10957;50.968;6.828;2023-02-08T06:43:46;-3.00;10.40
21590;DHT22;10957;50.968;6.828;2023-02-08T06:48:47;-3.40;21.20
21590;DHT22;10957;50.968;6.828;2023-02-08T06:53:48;-3.10;33.70
21590;DHT22;10957;50.968;6.828;2023-02-08T06:58:49;-3.00;33.40
21590;DHT22;10957;50.968;6.828;2023-02-08T07:03:50;-3.00;29.90
21590;DHT22;10957;50.968;6.828;2023-02-08T07:08:52;-3.10;37.70
21590;DHT22;10957;50.968;6.828;2023-02-08T07:13:53;-3.00;36.30
21590;DHT22;10957;50.968;6.828;2023-02-08T07:18:55;-3.10;31.60
21590;DHT22;10957;50.968;6.828;2023-02-08T07:23:56;-3.00;35.60
21590;DHT22;10957;50.968;6.828;2023-02-08T07:28:57;-3.00;35.50
21590;DHT22;10957;50.968;6.828;2023-02-08T07:33:59;-2.90;25.40
21590;DHT22;10957;50.968;6.828;2023-02-08T07:39:00;-2.70;25.60
21590;DHT22;10957;50.968;6.828;2023-02-08T07:44:02;-2.80;12.90
21590;DHT22;10957;50.968;6.828;2023-02-08T07:49:03;-2.70;8.20
21590;DHT22;10957;50.968;6.828;2023-02-08T07:54:04;-2.20;1.00
21590;DHT22;10957;50.968;6.828;2023-02-08T07:59:06;-2.40;1.00
21590;DHT22;10957;50.968;6.828;2023-02-08T08:04:07;-1.90;1.00
21590;DHT22;10957;50.968;6.828;2023-02-08T08:09:08;-1.80;1.00
21590;DHT22;10957;50.968;6.828;2023-02-08T08:14:09;-1.70;1.00
21590;DHT22;10957;50.968;6.828;2023-02-08T08:19:10;-1.50;1.00
21590;DHT22;10957;50.968;6.828;2023-02-08T08:24:12;-1.50;1.00
21590;DHT22;10957;50.968;6.828;2023-02-08T08:29:13;-1.90;1.00
21590;DHT22;10957;50.968;6.828;2023-02-08T08:34:14;-1.00;1.00
21590;DHT22;10957;50.968;6.828;2023-02-08T08:39:16;-1.30;1.00
21590;DHT22;10957;50.968;6.828;2023-02-08T08:44:17;-0.10;1.00
21590;DHT22;10957;50.968;6.828;2023-02-08T08:49:18;-0.20;1.00
21590;DHT22;10957;50.968;6.828;2023-02-08T08:54:20;0.20;1.00
21590;DHT22;10957;50.968;6.828;2023-02-08T08:59:21;0.30;1.00
21590;DHT22;10957;50.968;6.828;2023-02-08T09:04:23;0.50;1.00
21590;DHT22;10957;50.968;6.828;2023-02-08T09:09:24;0.50;1.00
21590;DHT22;10957;50.968;6.828;2023-02-08T09:14:26;0.90;1.00
21590;DHT22;10957;50.968;6.828;2023-02-08T09:19:27;0.90;1.00
21590;DHT22;10957;50.968;6.828;2023-02-08T09:24:29;1.20;1.00
21590;DHT22;10957;50.968;6.828;2023-02-08T09:29:30;1.30;1.00
21590;DHT22;10957;50.968;6.828;2023-02-08T09:34:33;1.40;1.00
21590;DHT22;10957;50.968;6.828;2023-02-08T09:39:34;1.60;1.00
21590;DHT22;10957;50.968;6.828;2023-02-08T09:55:25;2.20;1.00
21590;DHT22;10957;50.968;6.828;2023-02-08T10:00:41;2.10;1.00
21590;DHT22;10957;50.968;6.828;2023-02-08T10:05:43;2.40;1.00
21590;DHT22;10957;50.968;6.828;2023-02-08T10:16:12;2.60;1.00
21590;DHT22;10957;50.968;6.828;2023-02-08T10:21:37;2.90;1.00
21590;DHT22;10957;50.968;6.828;2023-02-08T10:26:46;2.80;1.00
21590;DHT22;10957;50.968;6.828;2023-02-08T10:37:20;3.00;1.00
21590;DHT22;10957;50.968;6.828;2023-02-08T10:42:27;3.20;1.00
21590;DHT22;10957;50.968;6.828;2023-02-08T10:47:45;3.60;1.00
21590;DHT22;10957;50.968;6.828;2023-02-08T10:52:48;3.40;1.00
21590;DHT22;10957;50.968;6.828;2023-02-08T10:57:51;3.40;1.00
21590;DHT22;10957;50.968;6.828;2023-02-08T11:02:54;3.70;1.00
21590;DHT22;10957;50.968;6.828;2023-02-08T11:08:07;4.00;1.00
21590;DHT22;10957;50.968;6.828;2023-02-08T11:13:17;3.40;1.00
21590;DHT22;10957;50.968;6.828;2023-02-08T11:18:24;4.10;1.00
21590;DHT22;10957;50.968;6.828;2023-02-08T11:23:35;4.30;1.00
21590;DHT22;10957;50.968;6.828;2023-02-08T11:28:37;4.30;1.00
21590;DHT22;10957;50.968;6.828;2023-02-08T11:39:15;4.70;1.00
21590;DHT22;10957;50.968;6.828;2023-02-08T11:44:32;4.80;1.00
21590;DHT22;10957;50.968;6.828;2023-02-08T11:49:42;4.70;1.00
21590;DHT22;10957;50.968;6.828;2023-02-08T11:54:43;5.10;1.00
21590;DHT22;10957;50.968;6.828;2023-02-08T11:59:46;5.10;1.00
21590;DHT22;10957;50.968;6.828;2023-02-08T12:04:48;5.50;1.00
21590;DHT22;10957;50.968;6.828;2023-02-08T12:31:51;5.90;1.00
21590;DHT22;10957;50.968;6.828;2023-02-08T12:52:47;6.20;1.00
21590;DHT22;10957;50.968;6.828;2023-02-08T12:57:53;6.30;1.00
21590;DHT22;10957;50.968;6.828;2023-02-08T13:08:42;6.60;1.00
21590;DHT22;10957;50.968;6.828;2023-02-08T13:13:51;6.70;1.00
21590;DHT22;10957;50.968;6.828;2023-02-08T13:29:51;7.00;1.00
21590;DHT22;10957;50.968;6.828;2023-02-08T13:34:57;6.90;1.00
21590;DHT22;10957;50.968;6.828;2023-02-08T13:40:22;6.80;1.00
21590;DHT22;10957;50.968;6.828;2023-02-08T13:45:34;6.60;1.00
21590;DHT22;10957;50.968;6.828;2023-02-08T13:55:59;7.10;1.00
21590;DHT22;10957;50.968;6.828;2023-02-08T14:01:22;6.50;1.00
21590;DHT22;10957;50.968;6.828;2023-02-08T14:06:26;6.80;1.00
21590;DHT22;10957;50.968;6.828;2023-02-08T14:11:43;6.50;1.00
21590;DHT22;10957;50.968;6.828;2023-02-08T14:27:19;7.00;1.00
21590;DHT22;10957;50.968;6.828;2023-02-08T14:32:23;7.00;1.00
21590;DHT22;10957;50.968;6.828;2023-02-08T14:37:28;6.90;1.00
21590;DHT22;10957;50.968;6.828;2023-02-08T14:42:53;7.00;1.00
21590;DHT22;10957;50.968;6.828;2023-02-08T14:58:32;6.40;1.00
21590;DHT22;10957;50.968;6.828;2023-02-08T15:03:34;7.10;1.00
21590;DHT22;10957;50.968;6.828;2023-02-08T15:08:36;6.70;1.00
21590;DHT22;10957;50.968;6.828;2023-02-08T15:13:38;6.80;1.00
21590;DHT22;10957;50.968;6.828;2023-02-08T15:18:39;6.80;1.00
21590;DHT22;10957;50.968;6.828;2023-02-08T15:23:59;6.50;1.00
21590;DHT22;10957;50.968;6.828;2023-02-08T15:29:00;6.60;1.00
21590;DHT22;10957;50.968;6.828;2023-02-08T15:34:02;5.90;1.00
21590;DHT22;10957;50.968;6.828;2023-02-08T15:39:14;6.40;1.00
21590;DHT22;10957;50.968;6.828;2023-02-08T15:44:20;6.10;1.00
21590;DHT22;10957;50.968;6.828;2023-02-08T15:49:34;5.90;1.00
21590;DHT22;10957;50.968;6.828;2023-02-08T15:54:36;5.70;1.00
21590;DHT22;10957;50.968;6.828;2023-02-08T15:59:38;5.60;1.00
21590;DHT22;10957;50.968;6.828;2023-02-08T16:04:44;5.20;1.00
21590;DHT22;10957;50.968;6.828;2023-02-08T16:09:46;5.20;1.00
21590;DHT22;10957;50.968;6.828;2023-02-08T16:14:47;4.90;1.00
21590;DHT22;10957;50.968;6.828;2023-02-08T16:19:52;4.70;1.00
21590;DHT22;10957;50.968;6.828;2023-02-08T16:24:53;4.70;1.00
21590;DHT22;10957;50.968;6.828;2023-02-08T16:30:18;4.80;1.00
21590;DHT22;10957;50.968;6.828;2023-02-08T16:35:21;4.80;1.00
21590;DHT22;10957;50.968;6.828;2023-02-08T16:40:51;4.60;1.00
21590;DHT22;10957;50.968;6.828;2023-02-08T16:51:25;4.50;1.00
21590;DHT22;10957;50.968;6.828;2023-02-08T16:56:27;4.30;1.00
21590;DHT22;10957;50.968;6.828;2023-02-08T17:01:28;4.20;1.00
21590;DHT22;10957;50.968;6.828;2023-02-08T17:06:34;3.80;1.00
21590;DHT22;10957;50.968;6.828;2023-02-08T17:11:36;3.70;1.00
21590;DHT22;10957;50.968;6.828;2023-02-08T17:16:39;3.90;1.00
21590;DHT22;10957;50.968;6.828;2023-02-08T17:21:40;3.80;1.00
21590;DHT22;10957;50.968;6.828;2023-02-08T17:26:42;3.50;1.00
21590;DHT22;10957;50.968;6.828;2023-02-08T17:31:43;3.40;1.00
21590;DHT22;10957;50.968;6.828;2023-02-08T17:36:46;3.10;1.00
21590;DHT22;10957;50.968;6.828;2023-02-08T17:41:47;3.10;1.00
21590;DHT22;10957;50.968;6.828;2023-02-08T17:46:49;3.10;1.00
21590;DHT22;10957;50.968;6.828;2023-02-08T17:51:50;2.90;1.00
21590;DHT22;10957;50.968;6.828;2023-02-08T17:56:51;2.90;1.00
21590;DHT22;10957;50.968;6.828;2023-02-08T18:01:56;2.30;1.00
21590;DHT22;10957;50.968;6.828;2023-02-08T18:06:57;2.60;1.00
21590;DHT22;10957;50.968;6.828;2023-02-08T18:11:58;2.60;1.00
21590;DHT22;10957;50.968;6.828;2023-02-08T18:17:00;2.20;1.00
21590;DHT22;10957;50.968;6.828;2023-02-08T18:22:01;2.50;1.00
21590;DHT22;10957;50.968;6.828;2023-02-08T18:27:04;2.00;1.00
21590;DHT22;10957;50.968;6.828;2023-02-08T18:32:05;2.00;1.00
21590;DHT22;10957;50.968;6.828;2023-02-08T18:37:07;2.00;1.00
21590;DHT22;10957;50.968;6.828;2023-02-08T18:42:08;1.60;1.00
21590;DHT22;10957;50.968;6.828;2023-02-08T18:47:10;1.80;1.00
21590;DHT22;10957;50.968;6.828;2023-02-08T18:52:12;1.70;1.00
21590;DHT22;10957;50.968;6.828;2023-02-08T18:57:15;1.90;1.00
21590;DHT22;10957;50.968;6.828;2023-02-08T19:02:19;2.00;1.00
21590;DHT22;10957;50.968;6.828;2023-02-08T19:07:24;2.10;1.00
21590;DHT22;10957;50.968;6.828;2023-02-08T19:12:25;2.10;1.00
21590;DHT22;10957;50.968;6.828;2023-02-08T19:17:27;2.20;1.00
21590;DHT22;10957;50.968;6.828;2023-02-08T19:22:28;2.10;1.00
21590;DHT22;10957;50.968;6.828;2023-02-08T19:27:29;1.70;1.00
21590;DHT22;10957;50.968;6.828;2023-02-08T19:32:31;1.70;1.00
21590;DHT22;10957;50.968;6.828;2023-02-08T19:37:32;1.70;1.00
21590;DHT22;10957;50.968;6.828;2023-02-08T19:42:33;1.50;1.00
21590;DHT22;10957;50.968;6.828;2023-02-08T19:47:35;1.60;1.00
21590;DHT22;10957;50.968;6.828;2023-02-08T19:52:36;1.40;1.00
21590;DHT22;10957;50.968;6.828;2023-02-08T19:57:42;1.30;1.00
21590;DHT22;10957;50.968;6.828;2023-02-08T20:02:43;1.20;1.00
21590;DHT22;10957;50.968;6.828;2023-02-08T20:07:45;1.20;1.00
21590;DHT22;10957;50.968;6.828;2023-02-08T20:12:47;0.50;1.00
21590;DHT22;10957;50.968;6.828;2023-02-08T20:17:48;0.80;1.00
21590;DHT22;10957;50.968;6.828;2023-02-08T20:22:49;0.20;1.00
21590;DHT22;10957;50.968;6.828;2023-02-08T20:27:50;0.40;1.00
21590;DHT22;10957;50.968;6.828;2023-02-08T20:32:52;0.50;1.00
21590;DHT22;10957;50.968;6.828;2023-02-08T20:37:54;0.30;1.00
21590;DHT22;10957;50.968;6.828;2023-02-08T20:42:55;0.10;1.00
21590;DHT22;10957;50.968;6.828;2023-02-08T20:47:56;0.30;1.00
21590;DHT22;10957;50.968;6.828;2023-02-08T20:52:57;0.30;1.00
21590;DHT22;10957;50.968;6.828;2023-02-08T20:57:58;0.10;1.00
21590;DHT22;10957;50.968;6.828;2023-02-08T21:02:59;0.10;1.00
21590;DHT22;10957;50.968;6.828;2023-02-08T21:08:00;0.10;1.00
21590;DHT22;10957;50.968;6.828;2023-02-08T21:13:02;0.10;1.00
21590;DHT22;10957;50.968;6.828;2023-02-08T21:18:03;0.00;1.00
21590;DHT22;10957;50.968;6.828;2023-02-08T21:23:06;-0.20;1.00
21590;DHT22;10957;50.968;6.828;2023-02-08T21:28:07;-0.20;1.00
21590;DHT22;10957;50.968;6.828;2023-02-08T21:33:08;-0.10;1.00
21590;DHT22;10957;50.968;6.828;2023-02-08T21:38:10;-0.50;1.00
21590;DHT22;10957;50.968;6.828;2023-02-08T21:43:11;-0.70;1.00
21590;DHT22;10957;50.968;6.828;2023-02-08T21:48:12;-0.60;1.00
21590;DHT22;10957;50.968;6.828;2023-02-08T21:53:14;-0.80;1.00
21590;DHT22;10957;50.968;6.828;2023-02-08T21:58:53;-0.80;1.00
21590;DHT22;10957;50.968;6.828;2023-02-08T22:03:54;-1.00;1.00
21590;DHT22;10957;50.968;6.828;2023-02-08T22:08:56;-1.10;1.00
21590;DHT22;10957;50.968;6.828;2023-02-08T22:13:57;-1.30;1.00
21590;DHT22;10957;50.968;6.828;2023-02-08T22:18:58;-1.10;1.00
21590;DHT22;10957;50.968;6.828;2023-02-08T22:23:59;-1.30;1.00
21590;DHT22;10957;50.968;6.828;2023-02-08T22:29:00;-1.10;1.00
21590;DHT22;10957;50.968;6.828;2023-02-08T22:34:02;-0.90;1.00
21590;DHT22;10957;50.968;6.828;2023-02-08T22:39:03;-1.40;1.00
21590;DHT22;10957;50.968;6.828;2023-02-08T22:44:04;-0.90;1.00
21590;DHT22;10957;50.968;6.828;2023-02-08T22:49:06;-1.00;1.00
21590;DHT22;10957;50.968;6.828;2023-02-08T22:54:08;-1.00;1.00
21590;DHT22;10957;50.968;6.828;2023-02-08T22:59:09;-0.90;1.00
21590;DHT22;10957;50.968;6.828;2023-02-08T23:04:11;-1.00;1.00
21590;DHT22;10957;50.968;6.828;2023-02-08T23:09:12;-1.20;1.00
21590;DHT22;10957;50.968;6.828;2023-02-08T23:14:14;-1.30;1.00
21590;DHT22;10957;50.968;6.828;2023-02-08T23:19:17;-1.50;1.00
21590;DHT22;10957;50.968;6.828;2023-02-08T23:24:18;-1.40;1.00
21590;DHT22;10957;50.968;6.828;2023-02-08T23:29:19;-1.70;1.00
21590;DHT22;10957;50.968;6.828;2023-02-08T23:34:20;-1.40;1.00
21590;DHT22;10957;50.968;6.828;2023-02-08T23:39:22;-1.50;1.00
21590;DHT22;10957;50.968;6.828;2023-02-08T23:44:23;-1.50;1.00
21590;DHT22;10957;50.968;6.828;2023-02-08T23:49:24;-1.60;1.00
21590;DHT22;10957;50.968;6.828;2023-02-08T23:54:26;-1.80;1.00
21590;DHT22;10957;50.968;6.828;2023-02-08T23:59:27;-1.60;1.00
